Terminal Aerodrome Forecast
Issued by NWS Albany, NY

Home | Current Version | Previous Version | Text Only | Print | Product List | Glossary On
Versions: 1 2 3 4 5 6 7 8 9 10 11 12 13 14
879
FTUS41 KALY 291727
TAFPOU
TAF
KPOU 291727Z 2918/3018 14005KT P6SM BKN060
      TEMPO 2918/2922 16008G18KT
     FM292300 14005KT P6SM VCSH OVC040
     FM300300 VRB03KT P6SM OVC040 PROB30 3003/3009 5SM -SHRA OVC030
     FM300900 VRB03KT P6SM BKN040
     FM301200 02005KT P6SM SCT070=

USA.gov is the U.S. government's official web portal to all federal, state and local government web resources and services.